Bw Eagle — 9V3248 — position and weather

sailwx.info

Track history (hours):
 
Tides and Currents Weather Stations Pressure Air Temp Water Temp Dewpoint Dewpoint Depression Visibility Wind Speed Wind Dir Waves Ship Positions

Bw Eagle

Last reported at 2018-May-15 05:59 UTC. Time now 2018-May-22 10:16 UTC.
Position S 24°26' W 046°21'.

Length 183 m; draft 8.5 m.

Type: Tanker. MMSI: 566555000.

Date/timePositionNaut miles runAvg speedWind from/ knotsBaromVisibWave heightAir tempDewpointWater temp
2018-May-15 05:59S 24°26' W 046°21'510.4
2018-May-15 05:30S 24°22' W 046°25'510.2
2018-May-15 05:00S 24°17' W 046°25'610.6
2018-May-15 04:24S 24°10' W 046°24'410.6
2018-May-15 04:00S 24°06' W 046°23'510.3
2018-May-15 03:30S 24°02' W 046°21'4 7.2
2018-May-15 02:59S 23°59' W 046°18'  
2018-May-11 20:27S 23°56' W 046°19'3 7.1
2018-May-11 19:59S 23°60' W 046°18'4 8.5
2018-May-11 19:30S 24°02' W 046°21'2 4.3
2018-May-11 19:00S 24°05' W 046°21'0 0.7
2018-May-11 18:25S 24°04' W 046°21'0 0.0
2018-May-11 17:58S 24°04' W 046°21'0 0.0
2018-May-11 17:25S 24°04' W 046°21'0 0.0
2018-May-11 16:58S 24°04' W 046°21'0 0.0
2018-May-11 16:25S 24°04' W 046°21'0 0.0
2018-May-11 15:55S 24°04' W 046°21'0 0.0
2018-May-11 15:19S 24°04' W 046°21'0 0.0
2018-May-11 14:58S 24°04' W 046°21'0 0.0
2018-May-11 14:28S 24°04' W 046°21'0 0.0
2018-May-11 13:49S 24°04' W 046°21'0 0.0
2018-May-11 13:25S 24°04' W 046°21'0 0.0
2018-May-11 12:55S 24°04' W 046°21'0 0.0
2018-May-11 12:25S 24°04' W 046°21'0 0.0
2018-May-11 11:55S 24°04' W 046°21'0 0.1
2018-May-11 11:28S 24°04' W 046°21'0 0.0
2018-May-11 10:58S 24°04' W 046°21'0 0.0
2018-May-11 10:25S 24°04' W 046°21'0 0.0
2018-May-11 09:55S 24°04' W 046°21'0 0.0
2018-May-11 09:19S 24°04' W 046°21'0 0.0
2018-May-11 08:52S 24°04' W 046°21'0 0.0
2018-May-11 08:28S 24°04' W 046°21'0 0.0
2018-May-11 07:58S 24°04' W 046°21'0 0.0
2018-May-11 07:28S 24°04' W 046°21'0 0.0
2018-May-11 06:58S 24°04' W 046°21'0 0.0
2018-May-11 06:28S 24°04' W 046°21'0 0.0
2018-May-11 05:25S 24°04' W 046°21'0 0.0
2018-May-11 04:58S 24°04' W 046°21'0 0.0
2018-May-11 04:28S 24°04' W 046°21'0 0.0
2018-May-11 03:58S 24°04' W 046°21'0 0.0
2018-May-11 03:25S 24°04' W 046°21'0 0.0
2018-May-11 02:07S 24°04' W 046°21'0 0.0
2018-May-11 01:49S 24°04' W 046°21'0 0.1
2018-May-11 01:28S 24°04' W 046°21'0 0.0
2018-May-11 00:55S 24°04' W 046°21'0 0.0
2018-May-11 00:19S 24°04' W 046°21'0 0.0
2018-May-10 23:58S 24°04' W 046°21'0 0.0
2018-May-10 23:25S 24°04' W 046°21'0 0.0
2018-May-10 22:55S 24°04' W 046°21'0 0.0
2018-May-10 22:19S 24°04' W 046°21'0 0.0
2018-May-10 21:58S 24°04' W 046°21'0 0.0
2018-May-10 21:28S 24°04' W 046°21'0 0.0
2018-May-10 20:40S 24°04' W 046°21'0 0.0
2018-May-10 20:25S 24°04' W 046°21'0 0.0
2018-May-10 19:55S 24°04' W 046°21'0 0.0
2018-May-10 19:19S 24°04' W 046°21'0 0.1
2018-May-10 18:58S 24°04' W 046°21'0 0.0
2018-May-10 18:28S 24°04' W 046°21'0 0.0
2018-May-10 17:58S 24°04' W 046°21'0 0.0
2018-May-10 17:19S 24°04' W 046°21'0 0.0
2018-May-10 16:58S 24°04' W 046°21'0 0.0
2018-May-10 16:19S 24°04' W 046°21'0 0.0
2018-May-10 15:49S 24°04' W 046°21'0 0.0
2018-May-10 15:28S 24°04' W 046°21'0 0.0
2018-May-10 14:58S 24°04' W 046°21'0 0.0
2018-May-10 14:28S 24°04' W 046°21'0 0.0
2018-May-10 13:49S 24°04' W 046°21'0 0.0
2018-May-10 13:25S 24°04' W 046°21'0 0.0
2018-May-10 12:58S 24°04' W 046°21'0 0.0
2018-May-10 12:28S 24°04' W 046°21'0 0.0
2018-May-10 11:58S 24°04' W 046°21'0 0.0
2018-May-10 11:25S 24°04' W 046°21'0 0.0
2018-May-10 10:46S 24°04' W 046°21'0 0.0
2018-May-10 10:25S 24°04' W 046°21'0 0.0
2018-May-10 09:58S 24°04' W 046°21'0 0.0
2018-May-10 09:25S 24°04' W 046°21'0 0.0
2018-May-10 08:55S 24°04' W 046°21'0 0.0
2018-May-10 08:25S 24°04' W 046°21'0 0.0
2018-May-10 07:58S 24°04' W 046°21'0 0.0
2018-May-10 07:25S 24°04' W 046°21'0 0.0
2018-May-10 06:55S 24°04' W 046°21'0 0.0
2018-May-10 06:28S 24°04' W 046°21'0 0.0
2018-May-10 05:58S 24°04' W 046°21'0 0.0
2018-May-10 05:28S 24°04' W 046°21'0 0.0
2018-May-10 04:49S 24°04' W 046°21'0 0.0
2018-May-10 04:22S 24°04' W 046°21'0 0.0
2018-May-10 03:40S 24°04' W 046°21'0 0.0
2018-May-10 03:28S 24°04' W 046°21'0 0.0
2018-May-10 02:58S 24°04' W 046°21'0 0.0
2018-May-10 02:28S 24°04' W 046°21'0 0.0
2018-May-10 01:34S 24°04' W 046°21'0 0.1
2018-May-10 01:28S 24°04' W 046°21'0 0.0
2018-May-09 23:25S 24°04' W 046°21'0 0.0
2018-May-09 22:58S 24°04' W 046°21'0 0.0
2018-May-09 22:25S 24°04' W 046°21'0 0.0
2018-May-09 21:58S 24°04' W 046°21'0 0.0
2018-May-09 21:28S 24°04' W 046°21'0 0.0
2018-May-09 20:58S 24°04' W 046°21'0 0.0
2018-May-09 20:28S 24°04' W 046°21'0 0.0
2018-May-09 19:55S 24°04' W 046°21'0 0.0
2018-May-09 19:28S 24°04' W 046°21'0 0.0
2018-May-09 18:58S 24°04' W 046°21'0 0.0
2018-May-09 18:28S 24°04' W 046°21'0 0.0
2018-May-09 17:58S 24°04' W 046°21'0 0.0
2018-May-09 17:16S 24°04' W 046°21'0 0.0
2018-May-09 16:58S 24°04' W 046°21'0 0.0
2018-May-09 16:28S 24°04' W 046°21'0 0.0
2018-May-09 15:49S 24°04' W 046°21'0 0.0
2018-May-09 15:28S 24°04' W 046°21'0 0.0
2018-May-09 14:58S 24°04' W 046°21'0 0.0
2018-May-09 14:28S 24°04' W 046°21'0 0.0
2018-May-09 13:55S 24°04' W 046°21'0 0.0
2018-May-09 13:25S 24°04' W 046°21'0 0.0
2018-May-09 12:58S 24°04' W 046°21'0 0.0
2018-May-09 12:25S 24°04' W 046°21'0 0.0
2018-May-09 11:52S 24°04' W 046°21'0 0.0
2018-May-09 11:28S 24°04' W 046°21'0 0.0
2018-May-09 10:55S 24°04' W 046°21'0 0.0
2018-May-09 10:22S 24°04' W 046°21'0 0.0
2018-May-09 09:49S 24°04' W 046°21'0 0.0
2018-May-09 09:28S 24°04' W 046°21'0 0.0
2018-May-09 08:58S 24°04' W 046°21'0 0.0
2018-May-09 08:22S 24°04' W 046°21'0 0.0
2018-May-09 07:52S 24°04' W 046°21'0 0.0
2018-May-09 07:25S 24°04' W 046°21'0 0.0
2018-May-09 06:55S 24°04' W 046°21'0 0.0
2018-May-09 06:28S 24°04' W 046°21'0 0.0
2018-May-09 05:58S 24°04' W 046°21'0 0.0
2018-May-09 05:28S 24°04' W 046°21'0 0.0
2018-May-09 04:58S 24°04' W 046°21'0 0.0
2018-May-09 04:28S 24°04' W 046°21'0 0.0
2018-May-09 03:46S 24°04' W 046°21'0 0.0
2018-May-09 03:28S 24°04' W 046°21'0 0.0
2018-May-09 02:49S 24°04' W 046°21'0 0.0
2018-May-09 02:22S 24°04' W 046°21'0 0.0
2018-May-09 01:58S 24°04' W 046°21'0 0.0
2018-May-09 01:28S 24°04' W 046°21'0 0.0
2018-May-09 00:58S 24°04' W 046°21'0 0.0
2018-May-09 00:25S 24°04' W 046°21'0 0.0
2018-May-08 23:58S 24°04' W 046°21'0 0.0
2018-May-08 23:28S 24°04' W 046°21'0 0.0
2018-May-08 22:55S 24°04' W 046°21'0 0.0
2018-May-08 22:19S 24°04' W 046°21'0 0.0
2018-May-08 21:52S 24°04' W 046°21'0 0.0
2018-May-08 21:13S 24°04' W 046°21'0 0.0
2018-May-08 20:58S 24°04' W 046°21'0 0.0
2018-May-08 20:28S 24°04' W 046°21'0 0.0
2018-May-08 19:58S 24°04' W 046°21'0 0.0
2018-May-08 19:16S 24°04' W 046°21'0 0.0
2018-May-08 18:58S 24°04' W 046°21'0 0.0
2018-May-08 18:28S 24°04' W 046°21'0 0.0
2018-May-08 17:49S 24°04' W 046°21'0 0.0
2018-May-08 17:28S 24°04' W 046°21'0 0.0
2018-May-08 16:58S 24°04' W 046°21'0 0.0
2018-May-08 16:28S 24°04' W 046°21'0 0.0
2018-May-08 15:58S 24°04' W 046°21'0 0.0
2018-May-08 15:25S 24°04' W 046°21'0 0.0
2018-May-08 14:40S 24°04' W 046°21'0 0.0
2018-May-08 14:16S 24°04' W 046°21'0 0.0
2018-May-08 13:46S 24°04' W 046°21'0 0.0
2018-May-08 13:19S 24°04' W 046°21'0 0.0
2018-May-08 12:55S 24°04' W 046°21'0 0.0
2018-May-08 12:16S 24°04' W 046°21'0 0.0
2018-May-08 11:55S 24°04' W 046°21'0 0.0
2018-May-08 11:25S 24°04' W 046°21'0 0.0
2018-May-08 10:58S 24°04' W 046°21'0 0.0
2018-May-08 10:22S 24°04' W 046°21'0 0.0
2018-May-08 09:58S 24°04' W 046°21'0 0.1
2018-May-08 09:28S 24°04' W 046°21'0 0.0
2018-May-08 08:49S 24°04' W 046°21'0 0.1
2018-May-08 08:28S 24°04' W 046°21'0 0.0
2018-May-08 07:58S 24°04' W 046°21'0 0.0
2018-May-08 07:22S 24°04' W 046°21'0 0.0
2018-May-08 06:58S 24°04' W 046°21'0 0.1
2018-May-08 06:28S 24°04' W 046°21'0 0.1
2018-May-08 05:58S 24°04' W 046°20'0 0.1
2018-May-08 05:28S 24°04' W 046°20'0 0.0
2018-May-08 04:55S 24°04' W 046°20'0 0.1
2018-May-08 04:22S 24°04' W 046°21'0 0.0
2018-May-08 03:58S 24°04' W 046°21'0 0.0
2018-May-08 02:40S 24°04' W 046°20'0 0.0
2018-May-08 02:28S 24°04' W 046°20'0 0.0
2018-May-08 01:52S 24°04' W 046°20'0 0.1
2018-May-08 01:28S 24°04' W 046°20'0 0.0
2018-May-08 00:58S 24°04' W 046°20'0 0.0
2018-May-08 00:25S 24°04' W 046°20'0 0.0
2018-May-07 23:58S 24°04' W 046°20'0 0.0
2018-May-07 23:28S 24°04' W 046°20'0 0.0
2018-May-07 22:58S 24°04' W 046°20'0 0.0
2018-May-07 22:28S 24°04' W 046°20'0 0.0
2018-May-07 21:55S 24°04' W 046°20'0 0.0
2018-May-07 21:25S 24°04' W 046°20'0 0.0
2018-May-07 20:58S 24°04' W 046°20'0 0.0
2018-May-07 20:25S 24°04' W 046°20'0 0.1
2018-May-07 19:52S 24°04' W 046°20'0 0.0
2018-May-07 19:28S 24°04' W 046°20'0 0.0
2018-May-07 18:58S 24°04' W 046°20'0 0.0
2018-May-07 18:22S 24°04' W 046°20'0 0.0
2018-May-07 17:55S 24°04' W 046°20'0 0.0
2018-May-07 17:28S 24°04' W 046°20'0 0.0
2018-May-07 16:58S 24°04' W 046°20'0 0.0
2018-May-07 16:28S 24°04' W 046°20'0 0.0
2018-May-07 15:58S 24°04' W 046°20'0 0.0
2018-May-07 15:28S 24°04' W 046°20'0 0.0
2018-May-07 14:49S 24°04' W 046°20'0 0.0
2018-May-07 14:19S 24°04' W 046°20'0 0.0
2018-May-07 13:58S 24°04' W 046°20'0 0.0
2018-May-07 13:28S 24°04' W 046°20'0 0.0
2018-May-07 12:55S 24°04' W 046°20'0 0.1
2018-May-07 12:28S 24°04' W 046°20'0 0.0
2018-May-07 11:58S 24°04' W 046°20'0 0.0
2018-May-07 11:28S 24°04' W 046°20'0 0.0
2018-May-07 10:55S 24°04' W 046°20'0 0.0
2018-May-07 10:28S 24°04' W 046°20'0 0.0
2018-May-07 09:49S 24°04' W 046°20'0 0.0
2018-May-07 09:28S 24°04' W 046°20'0 0.0
2018-May-07 08:58S 24°04' W 046°20'0 0.1
2018-May-07 08:28S 24°04' W 046°20'0 0.0
2018-May-07 07:55S 24°04' W 046°20'0 0.1
2018-May-07 07:28S 24°04' W 046°20'0 0.1
2018-May-07 06:52S 24°04' W 046°20'0 0.1
2018-May-07 06:28S 24°04' W 046°20'0 0.0
2018-May-07 05:55S 24°04' W 046°20'0 0.2
2018-May-07 05:19S 24°04' W 046°21'0 0.3
2018-May-07 04:55S 24°04' W 046°21'0 0.1
2018-May-07 04:28S 24°04' W 046°21'0 0.1
2018-May-07 03:48S 24°04' W 046°20'0 0.0
2018-May-07 03:25S 24°04' W 046°20'0 0.0
2018-May-07 02:58S 24°04' W 046°20'0 0.1
2018-May-07 02:25S 24°04' W 046°20'0 0.1
2018-May-07 02:00S 24°04' W 046°20'0 0.0
2018-May-07 01:27S 24°04' W 046°20'0 0.0
2018-May-07 00:55S 24°04' W 046°20'0 0.0
2018-May-07 00:25S 24°04' W 046°20'0 0.1
2018-May-06 23:58S 24°04' W 046°20'0 0.0
2018-May-06 23:13S 24°04' W 046°20'0 0.0
2018-May-06 22:55S 24°04' W 046°20'0 0.0
2018-May-06 22:28S 24°04' W 046°20'0 0.0
2018-May-06 21:48S 24°04' W 046°20'0 0.1
2018-May-06 21:28S 24°04' W 046°20'0 0.0
2018-May-06 20:57S 24°04' W 046°20'0 0.0
2018-May-06 20:31S 24°04' W 046°20'0 0.0
2018-May-06 19:58S 24°04' W 046°20'0 0.0
2018-May-06 19:31S 24°04' W 046°20'0 0.0
2018-May-06 19:00S 24°04' W 046°20'0 0.0
2018-May-06 18:28S 24°04' W 046°20'0 0.0
2018-May-06 18:01S 24°04' W 046°20'0 0.0
2018-May-06 17:31S 24°04' W 046°20'0 0.0
2018-May-06 17:00S 24°04' W 046°20'0 0.0
2018-May-06 16:28S 24°04' W 046°20'0 0.0
2018-May-06 16:00S 24°04' W 046°20'0 0.0
2018-May-06 15:24S 24°04' W 046°20'0 0.0
2018-May-06 14:57S 24°04' W 046°20'0 0.0
2018-May-06 14:30S 24°04' W 046°20'0 0.0
2018-May-06 14:00S 24°04' W 046°20'0 0.0
2018-May-06 13:31S 24°04' W 046°20'0 0.0
2018-May-06 12:52S 24°04' W 046°20'0 0.0
2018-May-06 12:18S 24°04' W 046°20'0 0.0
2018-May-06 12:00S 24°04' W 046°20'0 0.0
2018-May-06 11:30S 24°04' W 046°20'0 0.0
2018-May-06 11:00S 24°04' W 046°20'0 0.0
2018-May-06 10:30S 24°04' W 046°20'0 0.0
2018-May-06 10:00S 24°04' W 046°20'0 0.0
2018-May-06 09:27S 24°04' W 046°20'0 0.0
2018-May-06 08:57S 24°04' W 046°20'0 0.0
2018-May-06 08:30S 24°04' W 046°20'0 0.0
2018-May-06 08:00S 24°04' W 046°20'0 0.0
2018-May-06 07:28S 24°04' W 046°20'0 0.0
2018-May-06 06:57S 24°04' W 046°20'0 0.0
2018-May-06 06:30S 24°04' W 046°20'0 0.1
2018-May-06 06:00S 24°04' W 046°20'0 0.1
2018-May-06 05:30S 24°04' W 046°20'0 0.0
2018-May-06 05:00S 24°04' W 046°20'0 0.1
2018-May-06 04:30S 24°04' W 046°20'0 0.1
2018-May-06 03:57S 24°04' W 046°21'0 0.0
2018-May-06 03:18S 24°04' W 046°21'0 0.1
2018-May-06 02:54S 24°04' W 046°20'0 0.1
2018-May-06 02:30S 24°04' W 046°20'0 0.1
2018-May-06 02:00S 24°04' W 046°20'0 0.0
2018-May-06 01:30S 24°04' W 046°20'0 0.0
2018-May-06 01:00S 24°04' W 046°20'0 0.1
2018-May-06 00:30S 24°04' W 046°20'0 0.1
2018-May-05 23:54S 24°04' W 046°20'0 0.1
2018-May-05 23:24S 24°04' W 046°20'0 0.1
2018-May-05 23:00S 24°04' W 046°20'0 0.0
2018-May-05 22:24S 24°04' W 046°20'0 0.1
2018-May-05 22:00S 24°04' W 046°20'0 0.0
2018-May-05 21:24S 24°04' W 046°20'0 0.0
2018-May-05 21:00S 24°04' W 046°20'0 0.0
2018-May-05 20:30S 24°04' W 046°20'0 0.0
2018-May-05 20:00S 24°04' W 046°20'0 0.0
2018-May-05 19:30S 24°04' W 046°20'0 0.0
2018-May-05 19:00S 24°04' W 046°20'0 0.0
2018-May-05 18:30S 24°04' W 046°20'0 0.0
2018-May-05 18:00S 24°04' W 046°20'0 0.0
2018-May-05 17:30S 24°04' W 046°20'0 0.0
2018-May-05 16:48S 24°04' W 046°20'0 0.0
2018-May-05 16:30S 24°04' W 046°20'0 0.0
2018-May-05 16:00S 24°04' W 046°20'0 0.0
2018-May-05 15:30S 24°04' W 046°20'0 0.0
2018-May-05 15:00S 24°04' W 046°20'0 0.0
2018-May-05 14:30S 24°04' W 046°20'0 0.0
2018-May-05 14:00S 24°04' W 046°20'0 0.0
2018-May-05 13:30S 24°04' W 046°20'0 0.0
2018-May-05 13:00S 24°04' W 046°20'0 0.0
2018-May-05 12:30S 24°04' W 046°20'0 0.0
2018-May-05 12:00S 24°04' W 046°20'0 0.0
2018-May-05 11:27S 24°04' W 046°21'0 0.0
2018-May-05 10:57S 24°04' W 046°21'0 0.0
2018-May-05 10:24S 24°04' W 046°21'0 0.0
2018-May-05 10:00S 24°04' W 046°21'0 0.0
2018-May-05 09:27S 24°04' W 046°21'0 0.0
2018-May-05 08:48S 24°04' W 046°21'0 0.0
2018-May-05 08:24S 24°04' W 046°21'0 0.0
2018-May-05 07:27S 24°04' W 046°21'0 0.0
2018-May-05 07:00S 24°04' W 046°21'0 0.0
2018-May-05 06:30S 24°04' W 046°21'  
Track history (hours):
 
Tides and Currents Weather Stations Pressure Air Temp Water Temp Dewpoint Dewpoint Depression Visibility Wind Speed Wind Dir Waves Ship Positions

Bw Eagle

Last reported at 2018-May-15 05:59 UTC. Time now 2018-May-22 10:16 UTC.
Position S 24°26' W 046°21'.

Length 183 m; draft 8.5 m.

Type: Tanker. MMSI: 566555000.

Date/timePositionNaut miles runAvg speedWind from/ knotsBaromVisibWave heightAir tempDewpointWater temp
2018-May-15 05:59S 24°26' W 046°21'510.4
2018-May-15 05:30S 24°22' W 046°25'510.2
2018-May-15 05:00S 24°17' W 046°25'610.6
2018-May-15 04:24S 24°10' W 046°24'410.6
2018-May-15 04:00S 24°06' W 046°23'510.3
2018-May-15 03:30S 24°02' W 046°21'4 7.2
2018-May-15 02:59S 23°59' W 046°18'  
2018-May-11 20:27S 23°56' W 046°19'3 7.1
2018-May-11 19:59S 23°60' W 046°18'4 8.5
2018-May-11 19:30S 24°02' W 046°21'2 4.3
2018-May-11 19:00S 24°05' W 046°21'0 0.7
2018-May-11 18:25S 24°04' W 046°21'0 0.0
2018-May-11 17:58S 24°04' W 046°21'0 0.0
2018-May-11 17:25S 24°04' W 046°21'0 0.0
2018-May-11 16:58S 24°04' W 046°21'0 0.0
2018-May-11 16:25S 24°04' W 046°21'0 0.0
2018-May-11 15:55S 24°04' W 046°21'0 0.0
2018-May-11 15:19S 24°04' W 046°21'0 0.0
2018-May-11 14:58S 24°04' W 046°21'0 0.0
2018-May-11 14:28S 24°04' W 046°21'0 0.0
2018-May-11 13:49S 24°04' W 046°21'0 0.0
2018-May-11 13:25S 24°04' W 046°21'0 0.0
2018-May-11 12:55S 24°04' W 046°21'0 0.0
2018-May-11 12:25S 24°04' W 046°21'0 0.0
2018-May-11 11:55S 24°04' W 046°21'0 0.1
2018-May-11 11:28S 24°04' W 046°21'0 0.0
2018-May-11 10:58S 24°04' W 046°21'0 0.0
2018-May-11 10:25S 24°04' W 046°21'0 0.0
2018-May-11 09:55S 24°04' W 046°21'0 0.0
2018-May-11 09:19S 24°04' W 046°21'0 0.0
2018-May-11 08:52S 24°04' W 046°21'0 0.0
2018-May-11 08:28S 24°04' W 046°21'0 0.0
2018-May-11 07:58S 24°04' W 046°21'0 0.0
2018-May-11 07:28S 24°04' W 046°21'0 0.0
2018-May-11 06:58S 24°04' W 046°21'0 0.0
2018-May-11 06:28S 24°04' W 046°21'0 0.0
2018-May-11 05:25S 24°04' W 046°21'0 0.0
2018-May-11 04:58S 24°04' W 046°21'0 0.0
2018-May-11 04:28S 24°04' W 046°21'0 0.0
2018-May-11 03:58S 24°04' W 046°21'0 0.0
2018-May-11 03:25S 24°04' W 046°21'0 0.0
2018-May-11 02:07S 24°04' W 046°21'0 0.0
2018-May-11 01:49S 24°04' W 046°21'0 0.1
2018-May-11 01:28S 24°04' W 046°21'0 0.0
2018-May-11 00:55S 24°04' W 046°21'0 0.0
2018-May-11 00:19S 24°04' W 046°21'0 0.0
2018-May-10 23:58S 24°04' W 046°21'0 0.0
2018-May-10 23:25S 24°04' W 046°21'0 0.0
2018-May-10 22:55S 24°04' W 046°21'0 0.0
2018-May-10 22:19S 24°04' W 046°21'0 0.0
2018-May-10 21:58S 24°04' W 046°21'0 0.0
2018-May-10 21:28S 24°04' W 046°21'0 0.0
2018-May-10 20:40S 24°04' W 046°21'0 0.0
2018-May-10 20:25S 24°04' W 046°21'0 0.0
2018-May-10 19:55S 24°04' W 046°21'0 0.0
2018-May-10 19:19S 24°04' W 046°21'0 0.1
2018-May-10 18:58S 24°04' W 046°21'0 0.0
2018-May-10 18:28S 24°04' W 046°21'0 0.0
2018-May-10 17:58S 24°04' W 046°21'0 0.0
2018-May-10 17:19S 24°04' W 046°21'0 0.0
2018-May-10 16:58S 24°04' W 046°21'0 0.0
2018-May-10 16:19S 24°04' W 046°21'0 0.0
2018-May-10 15:49S 24°04' W 046°21'0 0.0
2018-May-10 15:28S 24°04' W 046°21'0 0.0
2018-May-10 14:58S 24°04' W 046°21'0 0.0
2018-May-10 14:28S 24°04' W 046°21'0 0.0
2018-May-10 13:49S 24°04' W 046°21'0 0.0
2018-May-10 13:25S 24°04' W 046°21'0 0.0
2018-May-10 12:58S 24°04' W 046°21'0 0.0
2018-May-10 12:28S 24°04' W 046°21'0 0.0
2018-May-10 11:58S 24°04' W 046°21'0 0.0
2018-May-10 11:25S 24°04' W 046°21'0 0.0
2018-May-10 10:46S 24°04' W 046°21'0 0.0
2018-May-10 10:25S 24°04' W 046°21'0 0.0
2018-May-10 09:58S 24°04' W 046°21'0 0.0
2018-May-10 09:25S 24°04' W 046°21'0 0.0
2018-May-10 08:55S 24°04' W 046°21'0 0.0
2018-May-10 08:25S 24°04' W 046°21'0 0.0
2018-May-10 07:58S 24°04' W 046°21'0 0.0
2018-May-10 07:25S 24°04' W 046°21'0 0.0
2018-May-10 06:55S 24°04' W 046°21'0 0.0
2018-May-10 06:28S 24°04' W 046°21'0 0.0
2018-May-10 05:58S 24°04' W 046°21'0 0.0
2018-May-10 05:28S 24°04' W 046°21'0 0.0
2018-May-10 04:49S 24°04' W 046°21'0 0.0
2018-May-10 04:22S 24°04' W 046°21'0 0.0
2018-May-10 03:40S 24°04' W 046°21'0 0.0
2018-May-10 03:28S 24°04' W 046°21'0 0.0
2018-May-10 02:58S 24°04' W 046°21'0 0.0
2018-May-10 02:28S 24°04' W 046°21'0 0.0
2018-May-10 01:34S 24°04' W 046°21'0 0.1
2018-May-10 01:28S 24°04' W 046°21'0 0.0
2018-May-09 23:25S 24°04' W 046°21'0 0.0
2018-May-09 22:58S 24°04' W 046°21'0 0.0
2018-May-09 22:25S 24°04' W 046°21'0 0.0
2018-May-09 21:58S 24°04' W 046°21'0 0.0
2018-May-09 21:28S 24°04' W 046°21'0 0.0
2018-May-09 20:58S 24°04' W 046°21'0 0.0
2018-May-09 20:28S 24°04' W 046°21'0 0.0
2018-May-09 19:55S 24°04' W 046°21'0 0.0
2018-May-09 19:28S 24°04' W 046°21'0 0.0
2018-May-09 18:58S 24°04' W 046°21'0 0.0
2018-May-09 18:28S 24°04' W 046°21'0 0.0
2018-May-09 17:58S 24°04' W 046°21'0 0.0
2018-May-09 17:16S 24°04' W 046°21'0 0.0
2018-May-09 16:58S 24°04' W 046°21'0 0.0
2018-May-09 16:28S 24°04' W 046°21'0 0.0
2018-May-09 15:49S 24°04' W 046°21'0 0.0
2018-May-09 15:28S 24°04' W 046°21'0 0.0
2018-May-09 14:58S 24°04' W 046°21'0 0.0
2018-May-09 14:28S 24°04' W 046°21'0 0.0
2018-May-09 13:55S 24°04' W 046°21'0 0.0
2018-May-09 13:25S 24°04' W 046°21'0 0.0
2018-May-09 12:58S 24°04' W 046°21'0 0.0
2018-May-09 12:25S 24°04' W 046°21'0 0.0
2018-May-09 11:52S 24°04' W 046°21'0 0.0
2018-May-09 11:28S 24°04' W 046°21'0 0.0
2018-May-09 10:55S 24°04' W 046°21'0 0.0
2018-May-09 10:22S 24°04' W 046°21'0 0.0
2018-May-09 09:49S 24°04' W 046°21'0 0.0
2018-May-09 09:28S 24°04' W 046°21'0 0.0
2018-May-09 08:58S 24°04' W 046°21'0 0.0
2018-May-09 08:22S 24°04' W 046°21'0 0.0
2018-May-09 07:52S 24°04' W 046°21'0 0.0
2018-May-09 07:25S 24°04' W 046°21'0 0.0
2018-May-09 06:55S 24°04' W 046°21'0 0.0
2018-May-09 06:28S 24°04' W 046°21'0 0.0
2018-May-09 05:58S 24°04' W 046°21'0 0.0
2018-May-09 05:28S 24°04' W 046°21'0 0.0
2018-May-09 04:58S 24°04' W 046°21'0 0.0
2018-May-09 04:28S 24°04' W 046°21'0 0.0
2018-May-09 03:46S 24°04' W 046°21'0 0.0
2018-May-09 03:28S 24°04' W 046°21'0 0.0
2018-May-09 02:49S 24°04' W 046°21'0 0.0
2018-May-09 02:22S 24°04' W 046°21'0 0.0
2018-May-09 01:58S 24°04' W 046°21'0 0.0
2018-May-09 01:28S 24°04' W 046°21'0 0.0
2018-May-09 00:58S 24°04' W 046°21'0 0.0
2018-May-09 00:25S 24°04' W 046°21'0 0.0
2018-May-08 23:58S 24°04' W 046°21'0 0.0
2018-May-08 23:28S 24°04' W 046°21'0 0.0
2018-May-08 22:55S 24°04' W 046°21'0 0.0
2018-May-08 22:19S 24°04' W 046°21'0 0.0
2018-May-08 21:52S 24°04' W 046°21'0 0.0
2018-May-08 21:13S 24°04' W 046°21'0 0.0
2018-May-08 20:58S 24°04' W 046°21'0 0.0
2018-May-08 20:28S 24°04' W 046°21'0 0.0
2018-May-08 19:58S 24°04' W 046°21'0 0.0
2018-May-08 19:16S 24°04' W 046°21'0 0.0
2018-May-08 18:58S 24°04' W 046°21'0 0.0
2018-May-08 18:28S 24°04' W 046°21'0 0.0
2018-May-08 17:49S 24°04' W 046°21'0 0.0
2018-May-08 17:28S 24°04' W 046°21'0 0.0
2018-May-08 16:58S 24°04' W 046°21'0 0.0
2018-May-08 16:28S 24°04' W 046°21'0 0.0
2018-May-08 15:58S 24°04' W 046°21'0 0.0
2018-May-08 15:25S 24°04' W 046°21'0 0.0
2018-May-08 14:40S 24°04' W 046°21'0 0.0
2018-May-08 14:16S 24°04' W 046°21'0 0.0
2018-May-08 13:46S 24°04' W 046°21'0 0.0
2018-May-08 13:19S 24°04' W 046°21'0 0.0
2018-May-08 12:55S 24°04' W 046°21'0 0.0
2018-May-08 12:16S 24°04' W 046°21'0 0.0
2018-May-08 11:55S 24°04' W 046°21'0 0.0
2018-May-08 11:25S 24°04' W 046°21'0 0.0
2018-May-08 10:58S 24°04' W 046°21'0 0.0
2018-May-08 10:22S 24°04' W 046°21'0 0.0
2018-May-08 09:58S 24°04' W 046°21'0 0.1
2018-May-08 09:28S 24°04' W 046°21'0 0.0
2018-May-08 08:49S 24°04' W 046°21'0 0.1
2018-May-08 08:28S 24°04' W 046°21'0 0.0
2018-May-08 07:58S 24°04' W 046°21'0 0.0
2018-May-08 07:22S 24°04' W 046°21'0 0.0
2018-May-08 06:58S 24°04' W 046°21'0 0.1
2018-May-08 06:28S 24°04' W 046°21'0 0.1
2018-May-08 05:58S 24°04' W 046°20'0 0.1
2018-May-08 05:28S 24°04' W 046°20'0 0.0
2018-May-08 04:55S 24°04' W 046°20'0 0.1
2018-May-08 04:22S 24°04' W 046°21'0 0.0
2018-May-08 03:58S 24°04' W 046°21'0 0.0
2018-May-08 02:40S 24°04' W 046°20'0 0.0
2018-May-08 02:28S 24°04' W 046°20'0 0.0
2018-May-08 01:52S 24°04' W 046°20'0 0.1
2018-May-08 01:28S 24°04' W 046°20'0 0.0
2018-May-08 00:58S 24°04' W 046°20'0 0.0
2018-May-08 00:25S 24°04' W 046°20'0 0.0
2018-May-07 23:58S 24°04' W 046°20'0 0.0
2018-May-07 23:28S 24°04' W 046°20'0 0.0
2018-May-07 22:58S 24°04' W 046°20'0 0.0
2018-May-07 22:28S 24°04' W 046°20'0 0.0
2018-May-07 21:55S 24°04' W 046°20'0 0.0
2018-May-07 21:25S 24°04' W 046°20'0 0.0
2018-May-07 20:58S 24°04' W 046°20'0 0.0
2018-May-07 20:25S 24°04' W 046°20'0 0.1
2018-May-07 19:52S 24°04' W 046°20'0 0.0
2018-May-07 19:28S 24°04' W 046°20'0 0.0
2018-May-07 18:58S 24°04' W 046°20'0 0.0
2018-May-07 18:22S 24°04' W 046°20'0 0.0
2018-May-07 17:55S 24°04' W 046°20'0 0.0
2018-May-07 17:28S 24°04' W 046°20'0 0.0
2018-May-07 16:58S 24°04' W 046°20'0 0.0
2018-May-07 16:28S 24°04' W 046°20'0 0.0
2018-May-07 15:58S 24°04' W 046°20'0 0.0
2018-May-07 15:28S 24°04' W 046°20'0 0.0
2018-May-07 14:49S 24°04' W 046°20'0 0.0
2018-May-07 14:19S 24°04' W 046°20'0 0.0
2018-May-07 13:58S 24°04' W 046°20'0 0.0
2018-May-07 13:28S 24°04' W 046°20'0 0.0
2018-May-07 12:55S 24°04' W 046°20'0 0.1
2018-May-07 12:28S 24°04' W 046°20'0 0.0
2018-May-07 11:58S 24°04' W 046°20'0 0.0
2018-May-07 11:28S 24°04' W 046°20'0 0.0
2018-May-07 10:55S 24°04' W 046°20'0 0.0
2018-May-07 10:28S 24°04' W 046°20'0 0.0
2018-May-07 09:49S 24°04' W 046°20'0 0.0
2018-May-07 09:28S 24°04' W 046°20'0 0.0
2018-May-07 08:58S 24°04' W 046°20'0 0.1
2018-May-07 08:28S 24°04' W 046°20'0 0.0
2018-May-07 07:55S 24°04' W 046°20'0 0.1
2018-May-07 07:28S 24°04' W 046°20'0 0.1
2018-May-07 06:52S 24°04' W 046°20'0 0.1
2018-May-07 06:28S 24°04' W 046°20'0 0.0
2018-May-07 05:55S 24°04' W 046°20'0 0.2
2018-May-07 05:19S 24°04' W 046°21'0 0.3
2018-May-07 04:55S 24°04' W 046°21'0 0.1
2018-May-07 04:28S 24°04' W 046°21'0 0.1
2018-May-07 03:48S 24°04' W 046°20'0 0.0
2018-May-07 03:25S 24°04' W 046°20'0 0.0
2018-May-07 02:58S 24°04' W 046°20'0 0.1
2018-May-07 02:25S 24°04' W 046°20'0 0.1
2018-May-07 02:00S 24°04' W 046°20'0 0.0
2018-May-07 01:27S 24°04' W 046°20'0 0.0
2018-May-07 00:55S 24°04' W 046°20'0 0.0
2018-May-07 00:25S 24°04' W 046°20'0 0.1
2018-May-06 23:58S 24°04' W 046°20'0 0.0
2018-May-06 23:13S 24°04' W 046°20'0 0.0
2018-May-06 22:55S 24°04' W 046°20'0 0.0
2018-May-06 22:28S 24°04' W 046°20'0 0.0
2018-May-06 21:48S 24°04' W 046°20'0 0.1
2018-May-06 21:28S 24°04' W 046°20'0 0.0
2018-May-06 20:57S 24°04' W 046°20'0 0.0
2018-May-06 20:31S 24°04' W 046°20'0 0.0
2018-May-06 19:58S 24°04' W 046°20'0 0.0
2018-May-06 19:31S 24°04' W 046°20'0 0.0
2018-May-06 19:00S 24°04' W 046°20'0 0.0
2018-May-06 18:28S 24°04' W 046°20'0 0.0
2018-May-06 18:01S 24°04' W 046°20'0 0.0
2018-May-06 17:31S 24°04' W 046°20'0 0.0
2018-May-06 17:00S 24°04' W 046°20'0 0.0
2018-May-06 16:28S 24°04' W 046°20'0 0.0
2018-May-06 16:00S 24°04' W 046°20'0 0.0
2018-May-06 15:24S 24°04' W 046°20'0 0.0
2018-May-06 14:57S 24°04' W 046°20'0 0.0
2018-May-06 14:30S 24°04' W 046°20'0 0.0
2018-May-06 14:00S 24°04' W 046°20'0 0.0
2018-May-06 13:31S 24°04' W 046°20'0 0.0
2018-May-06 12:52S 24°04' W 046°20'0 0.0
2018-May-06 12:18S 24°04' W 046°20'0 0.0
2018-May-06 12:00S 24°04' W 046°20'0 0.0
2018-May-06 11:30S 24°04' W 046°20'0 0.0
2018-May-06 11:00S 24°04' W 046°20'0 0.0
2018-May-06 10:30S 24°04' W 046°20'0 0.0
2018-May-06 10:00S 24°04' W 046°20'0 0.0
2018-May-06 09:27S 24°04' W 046°20'0 0.0
2018-May-06 08:57S 24°04' W 046°20'0 0.0
2018-May-06 08:30S 24°04' W 046°20'0 0.0
2018-May-06 08:00S 24°04' W 046°20'0 0.0
2018-May-06 07:28S 24°04' W 046°20'0 0.0
2018-May-06 06:57S 24°04' W 046°20'0 0.0
2018-May-06 06:30S 24°04' W 046°20'0 0.1
2018-May-06 06:00S 24°04' W 046°20'0 0.1
2018-May-06 05:30S 24°04' W 046°20'0 0.0
2018-May-06 05:00S 24°04' W 046°20'0 0.1
2018-May-06 04:30S 24°04' W 046°20'0 0.1
2018-May-06 03:57S 24°04' W 046°21'0 0.0
2018-May-06 03:18S 24°04' W 046°21'0 0.1
2018-May-06 02:54S 24°04' W 046°20'0 0.1
2018-May-06 02:30S 24°04' W 046°20'0 0.1
2018-May-06 02:00S 24°04' W 046°20'0 0.0
2018-May-06 01:30S 24°04' W 046°20'0 0.0
2018-May-06 01:00S 24°04' W 046°20'0 0.1
2018-May-06 00:30S 24°04' W 046°20'0 0.1
2018-May-05 23:54S 24°04' W 046°20'0 0.1
2018-May-05 23:24S 24°04' W 046°20'0 0.1
2018-May-05 23:00S 24°04' W 046°20'0 0.0
2018-May-05 22:24S 24°04' W 046°20'0 0.1
2018-May-05 22:00S 24°04' W 046°20'0 0.0
2018-May-05 21:24S 24°04' W 046°20'0 0.0
2018-May-05 21:00S 24°04' W 046°20'0 0.0
2018-May-05 20:30S 24°04' W 046°20'0 0.0
2018-May-05 20:00S 24°04' W 046°20'0 0.0
2018-May-05 19:30S 24°04' W 046°20'0 0.0
2018-May-05 19:00S 24°04' W 046°20'0 0.0
2018-May-05 18:30S 24°04' W 046°20'0 0.0
2018-May-05 18:00S 24°04' W 046°20'0 0.0
2018-May-05 17:30S 24°04' W 046°20'0 0.0
2018-May-05 16:48S 24°04' W 046°20'0 0.0
2018-May-05 16:30S 24°04' W 046°20'0 0.0
2018-May-05 16:00S 24°04' W 046°20'0 0.0
2018-May-05 15:30S 24°04' W 046°20'0 0.0
2018-May-05 15:00S 24°04' W 046°20'0 0.0
2018-May-05 14:30S 24°04' W 046°20'0 0.0
2018-May-05 14:00S 24°04' W 046°20'0 0.0
2018-May-05 13:30S 24°04' W 046°20'0 0.0
2018-May-05 13:00S 24°04' W 046°20'0 0.0
2018-May-05 12:30S 24°04' W 046°20'0 0.0
2018-May-05 12:00S 24°04' W 046°20'0 0.0
2018-May-05 11:27S 24°04' W 046°21'0 0.0
2018-May-05 10:57S 24°04' W 046°21'0 0.0
2018-May-05 10:24S 24°04' W 046°21'0 0.0
2018-May-05 10:00S 24°04' W 046°21'0 0.0
2018-May-05 09:27S 24°04' W 046°21'0 0.0
2018-May-05 08:48S 24°04' W 046°21'0 0.0
2018-May-05 08:24S 24°04' W 046°21'0 0.0
2018-May-05 07:27S 24°04' W 046°21'0 0.0
2018-May-05 07:00S 24°04' W 046°21'0 0.0
2018-May-05 06:30S 24°04' W 046°21'  

Dump ship's entire track history